
<gpx xmlns="http://www.topografix.com/GPX/1/1" xmlns:gpxx="http://www.garmin.com/xmlschemas/GpxExtensions/v3" xmlns:xsi="http://www.w3.org/2001/XMLSchema-instance" version="1.1" creator="Adze - https://getadze.com/" xsi:schemaLocation="http://www.topografix.com/GPX/1/1 http://www.topografix.com/GPX/1/1/gpx.xsd http://www.garmin.com/xmlschemas/GpxExtensions/v3 http://www.garmin.com/xmlschemas/GpxExtensionsv3.xsd">
    <metadata>
        <name>Untitled Document</name>
        <link href="http://www.garmin.com"></link>
        <time>2018-02-27T06:26:53.653Z</time>
    </metadata>
    <wpt lon="100.974813" lat="12.905492">
        <ele>78.000000</ele>
        <name>Horseshoe Point</name>
        <cmt>23-MAR-12 15:42:05</cmt>
        <desc>23-MAR-12 15:42:05</desc>
        <sym>Lodging</sym>
        <extensions>
            <gpxx:WaypointExtension xmlns:gpxx="http://www.garmin.com/xmlschemas/GpxExtensions/v3">
                <gpxx:DisplayMode>SymbolOnly</gpxx:DisplayMode>
            </gpxx:WaypointExtension>
        </extensions>
    </wpt>
    <wpt lon="100.953150" lat="12.974852">
        <ele>28.000000</ele>
        <name>Water Sun</name>
        <cmt>25-MAR-12 11:08:13</cmt>
        <desc>25-MAR-12 11:08:13</desc>
        <sym>Drinking Water</sym>
        <extensions>
            <gpxx:WaypointExtension xmlns:gpxx="http://www.garmin.com/xmlschemas/GpxExtensions/v3">
                <gpxx:DisplayMode>SymbolOnly</gpxx:DisplayMode>
            </gpxx:WaypointExtension>
        </extensions>
    </wpt>
    <trk>
        <name>Sunday</name>
        <extensions>
            <gpxx:TrackExtension xmlns:gpxx="http://www.garmin.com/xmlschemas/GpxExtensions/v3">
                <gpxx:DisplayColor>Green</gpxx:DisplayColor>
            </gpxx:TrackExtension>
        </extensions>
        <trkseg>
            <trkpt lon="100.974450" lat="12.906100">
                <ele>87.136597</ele>
                <time>2012-03-25T03:03:21Z</time>
            </trkpt>
            <trkpt lon="100.974398" lat="12.906467">
                <ele>86.656006</ele>
                <time>2012-03-25T03:03:39Z</time>
            </trkpt>
            <trkpt lon="100.974773" lat="12.906930">
                <ele>84.733398</ele>
                <time>2012-03-25T03:03:53Z</time>
            </trkpt>
            <trkpt lon="100.975038" lat="12.906980">
                <ele>84.733398</ele>
                <time>2012-03-25T03:03:59Z</time>
            </trkpt>
            <trkpt lon="100.974830" lat="12.908054">
                <ele>84.733398</ele>
                <time>2012-03-25T03:04:26Z</time>
            </trkpt>
            <trkpt lon="100.974386" lat="12.909371">
                <ele>82.330078</ele>
                <time>2012-03-25T03:04:56Z</time>
            </trkpt>
            <trkpt lon="100.974715" lat="12.909882">
                <ele>80.407471</ele>
                <time>2012-03-25T03:05:08Z</time>
            </trkpt>
            <trkpt lon="100.975830" lat="12.910776">
                <ele>83.771973</ele>
                <time>2012-03-25T03:05:43Z</time>
            </trkpt>
            <trkpt lon="100.976049" lat="12.911614">
                <ele>82.330078</ele>
                <time>2012-03-25T03:06:02Z</time>
            </trkpt>
            <trkpt lon="100.975489" lat="12.911945">
                <ele>78.484741</ele>
                <time>2012-03-25T03:06:16Z</time>
            </trkpt>
            <trkpt lon="100.974687" lat="12.912106">
                <ele>76.081421</ele>
                <time>2012-03-25T03:06:30Z</time>
            </trkpt>
            <trkpt lon="100.974429" lat="12.912269">
                <ele>74.639526</ele>
                <time>2012-03-25T03:06:35Z</time>
            </trkpt>
            <trkpt lon="100.973427" lat="12.913459">
                <ele>73.678223</ele>
                <time>2012-03-25T03:06:59Z</time>
            </trkpt>
            <trkpt lon="100.972908" lat="12.913768">
                <ele>72.236206</ele>
                <time>2012-03-25T03:07:08Z</time>
            </trkpt>
            <trkpt lon="100.971496" lat="12.915230">
                <ele>71.274902</ele>
                <time>2012-03-25T03:07:40Z</time>
            </trkpt>
            <trkpt lon="100.971237" lat="12.915333">
                <ele>71.274902</ele>
                <time>2012-03-25T03:07:44Z</time>
            </trkpt>
            <trkpt lon="100.969597" lat="12.915814">
                <ele>60.219727</ele>
                <time>2012-03-25T03:08:10Z</time>
            </trkpt>
            <trkpt lon="100.969319" lat="12.916137">
                <ele>59.739136</ele>
                <time>2012-03-25T03:08:17Z</time>
            </trkpt>
            <trkpt lon="100.968756" lat="12.917955">
                <ele>56.855103</ele>
                <time>2012-03-25T03:08:49Z</time>
            </trkpt>
            <trkpt lon="100.968904" lat="12.918698">
                <ele>57.816528</ele>
                <time>2012-03-25T03:09:06Z</time>
            </trkpt>
            <trkpt lon="100.969939" lat="12.918582">
                <ele>59.739136</ele>
                <time>2012-03-25T03:09:30Z</time>
            </trkpt>
            <trkpt lon="100.971050" lat="12.918389">
                <ele>61.181030</ele>
                <time>2012-03-25T03:09:57Z</time>
            </trkpt>
            <trkpt lon="100.970832" lat="12.919272">
                <ele>63.103638</ele>
                <time>2012-03-25T03:10:19Z</time>
            </trkpt>
            <trkpt lon="100.970202" lat="12.920611">
                <ele>57.335815</ele>
                <time>2012-03-25T03:10:45Z</time>
            </trkpt>
            <trkpt lon="100.970993" lat="12.921861">
                <ele>60.700317</ele>
                <time>2012-03-25T03:11:17Z</time>
            </trkpt>
            <trkpt lon="100.971277" lat="12.922346">
                <ele>57.816528</ele>
                <time>2012-03-25T03:11:28Z</time>
            </trkpt>
            <trkpt lon="100.971462" lat="12.923677">
                <ele>52.529175</ele>
                <time>2012-03-25T03:11:53Z</time>
            </trkpt>
            <trkpt lon="100.971365" lat="12.923932">
                <ele>53.009766</ele>
                <time>2012-03-25T03:11:59Z</time>
            </trkpt>
            <trkpt lon="100.970646" lat="12.924280">
                <ele>56.374512</ele>
                <time>2012-03-25T03:12:14Z</time>
            </trkpt>
            <trkpt lon="100.970432" lat="12.924477">
                <ele>56.374512</ele>
                <time>2012-03-25T03:12:23Z</time>
            </trkpt>
            <trkpt lon="100.970841" lat="12.925631">
                <ele>59.258423</ele>
                <time>2012-03-25T03:13:04Z</time>
            </trkpt>
            <trkpt lon="100.970883" lat="12.925637">
                <ele>53.490479</ele>
                <time>2012-03-25T03:14:56Z</time>
            </trkpt>
            <trkpt lon="100.971648" lat="12.927762">
                <ele>58.297119</ele>
                <time>2012-03-25T03:16:07Z</time>
            </trkpt>
            <trkpt lon="100.972448" lat="12.928982">
                <ele>64.545654</ele>
                <time>2012-03-25T03:16:47Z</time>
            </trkpt>
            <trkpt lon="100.972523" lat="12.929600">
                <ele>63.584351</ele>
                <time>2012-03-25T03:17:03Z</time>
            </trkpt>
            <trkpt lon="100.971588" lat="12.931308">
                <ele>60.700317</ele>
                <time>2012-03-25T03:17:40Z</time>
            </trkpt>
            <trkpt lon="100.971206" lat="12.932255">
                <ele>58.297119</ele>
                <time>2012-03-25T03:17:55Z</time>
            </trkpt>
            <trkpt lon="100.971064" lat="12.933193">
                <ele>60.219727</ele>
                <time>2012-03-25T03:18:10Z</time>
            </trkpt>
            <trkpt lon="100.970946" lat="12.933894">
                <ele>58.777710</ele>
                <time>2012-03-25T03:18:22Z</time>
            </trkpt>
            <trkpt lon="100.971123" lat="12.934089">
                <ele>59.258423</ele>
                <time>2012-03-25T03:18:28Z</time>
            </trkpt>
            <trkpt lon="100.972385" lat="12.934349">
                <ele>54.932373</ele>
                <time>2012-03-25T03:18:52Z</time>
            </trkpt>
            <trkpt lon="100.973770" lat="12.935367">
                <ele>53.971191</ele>
                <time>2012-03-25T03:19:22Z</time>
            </trkpt>
            <trkpt lon="100.975204" lat="12.935485">
                <ele>57.816528</ele>
                <time>2012-03-25T03:19:51Z</time>
            </trkpt>
            <trkpt lon="100.975731" lat="12.935603">
                <ele>54.932373</ele>
                <time>2012-03-25T03:20:03Z</time>
            </trkpt>
            <trkpt lon="100.977048" lat="12.936163">
                <ele>57.816528</ele>
                <time>2012-03-25T03:20:32Z</time>
            </trkpt>
            <trkpt lon="100.977219" lat="12.936430">
                <ele>58.777710</ele>
                <time>2012-03-25T03:20:43Z</time>
            </trkpt>
            <trkpt lon="100.979646" lat="12.935244">
                <ele>65.987671</ele>
                <time>2012-03-25T03:21:56Z</time>
            </trkpt>
            <trkpt lon="100.980025" lat="12.935929">
                <ele>64.545654</ele>
                <time>2012-03-25T03:22:16Z</time>
            </trkpt>
            <trkpt lon="100.979524" lat="12.936470">
                <ele>72.236206</ele>
                <time>2012-03-25T03:22:32Z</time>
            </trkpt>
            <trkpt lon="100.979126" lat="12.936569">
                <ele>70.313477</ele>
                <time>2012-03-25T03:22:39Z</time>
            </trkpt>
            <trkpt lon="100.978741" lat="12.937052">
                <ele>66.468262</ele>
                <time>2012-03-25T03:22:50Z</time>
            </trkpt>
            <trkpt lon="100.976968" lat="12.937551">
                <ele>61.661743</ele>
                <time>2012-03-25T03:23:21Z</time>
            </trkpt>
            <trkpt lon="100.976419" lat="12.937851">
                <ele>61.181030</ele>
                <time>2012-03-25T03:23:31Z</time>
            </trkpt>
            <trkpt lon="100.976012" lat="12.938226">
                <ele>59.258423</ele>
                <time>2012-03-25T03:23:40Z</time>
            </trkpt>
            <trkpt lon="100.974230" lat="12.938723">
                <ele>56.374512</ele>
                <time>2012-03-25T03:24:11Z</time>
            </trkpt>
            <trkpt lon="100.974254" lat="12.939571">
                <ele>56.855103</ele>
                <time>2012-03-25T03:24:31Z</time>
            </trkpt>
            <trkpt lon="100.974024" lat="12.939726">
                <ele>56.855103</ele>
                <time>2012-03-25T03:24:38Z</time>
            </trkpt>
            <trkpt lon="100.973197" lat="12.939492">
                <ele>56.855103</ele>
                <time>2012-03-25T03:24:54Z</time>
            </trkpt>
            <trkpt lon="100.973023" lat="12.939744">
                <ele>57.335815</ele>
                <time>2012-03-25T03:25:01Z</time>
            </trkpt>
            <trkpt lon="100.972633" lat="12.942866">
                <ele>52.529175</ele>
                <time>2012-03-25T03:25:59Z</time>
            </trkpt>
            <trkpt lon="100.972647" lat="12.943791">
                <ele>53.490479</ele>
                <time>2012-03-25T03:26:17Z</time>
            </trkpt>
            <trkpt lon="100.974301" lat="12.946440">
                <ele>54.451782</ele>
                <time>2012-03-25T03:27:16Z</time>
            </trkpt>
            <trkpt lon="100.974338" lat="12.946699">
                <ele>53.971191</ele>
                <time>2012-03-25T03:27:23Z</time>
            </trkpt>
            <trkpt lon="100.973810" lat="12.946932">
                <ele>51.567871</ele>
                <time>2012-03-25T03:27:38Z</time>
            </trkpt>
            <trkpt lon="100.973397" lat="12.946803">
                <ele>51.567871</ele>
                <time>2012-03-25T03:27:48Z</time>
            </trkpt>
            <trkpt lon="100.972915" lat="12.946867">
                <ele>51.567871</ele>
                <time>2012-03-25T03:28:00Z</time>
            </trkpt>
            <trkpt lon="100.973056" lat="12.948193">
                <ele>54.932373</ele>
                <time>2012-03-25T03:28:33Z</time>
            </trkpt>
            <trkpt lon="100.973105" lat="12.949459">
                <ele>52.048584</ele>
                <time>2012-03-25T03:29:05Z</time>
            </trkpt>
            <trkpt lon="100.973333" lat="12.949563">
                <ele>51.087158</ele>
                <time>2012-03-25T03:29:22Z</time>
            </trkpt>
            <trkpt lon="100.973192" lat="12.951241">
                <ele>48.203369</ele>
                <time>2012-03-25T03:30:16Z</time>
            </trkpt>
            <trkpt lon="100.972149" lat="12.951019">
                <ele>48.683960</ele>
                <time>2012-03-25T03:30:42Z</time>
            </trkpt>
            <trkpt lon="100.971695" lat="12.951352">
                <ele>48.683960</ele>
                <time>2012-03-25T03:31:07Z</time>
            </trkpt>
            <trkpt lon="100.970838" lat="12.951390">
                <ele>49.164551</ele>
                <time>2012-03-25T03:31:36Z</time>
            </trkpt>
            <trkpt lon="100.970641" lat="12.951659">
                <ele>52.048584</ele>
                <time>2012-03-25T03:31:54Z</time>
            </trkpt>
            <trkpt lon="100.968925" lat="12.951869">
                <ele>52.529175</ele>
                <time>2012-03-25T03:32:46Z</time>
            </trkpt>
            <trkpt lon="100.966503" lat="12.951631">
                <ele>62.622925</ele>
                <time>2012-03-25T03:33:53Z</time>
            </trkpt>
            <trkpt lon="100.965741" lat="12.951548">
                <ele>62.622925</ele>
                <time>2012-03-25T03:34:13Z</time>
            </trkpt>
            <trkpt lon="100.965688" lat="12.951758">
                <ele>63.584351</ele>
                <time>2012-03-25T03:34:20Z</time>
            </trkpt>
            <trkpt lon="100.965894" lat="12.952519">
                <ele>63.103638</ele>
                <time>2012-03-25T03:34:47Z</time>
            </trkpt>
            <trkpt lon="100.965767" lat="12.952505">
                <ele>62.622925</ele>
                <time>2012-03-25T03:35:17Z</time>
            </trkpt>
            <trkpt lon="100.965973" lat="12.952549">
                <ele>63.103638</ele>
                <time>2012-03-25T03:35:35Z</time>
            </trkpt>
            <trkpt lon="100.966027" lat="12.952763">
                <ele>61.661743</ele>
                <time>2012-03-25T03:35:48Z</time>
            </trkpt>
            <trkpt lon="100.966545" lat="12.953276">
                <ele>60.219727</ele>
                <time>2012-03-25T03:36:03Z</time>
            </trkpt>
            <trkpt lon="100.967206" lat="12.953805">
                <ele>56.855103</ele>
                <time>2012-03-25T03:36:21Z</time>
            </trkpt>
            <trkpt lon="100.967585" lat="12.954044">
                <ele>48.203369</ele>
                <time>2012-03-25T03:36:30Z</time>
            </trkpt>
            <trkpt lon="100.967854" lat="12.954067">
                <ele>50.125977</ele>
                <time>2012-03-25T03:36:35Z</time>
            </trkpt>
            <trkpt lon="100.969615" lat="12.953623">
                <ele>47.241821</ele>
                <time>2012-03-25T03:37:05Z</time>
            </trkpt>
            <trkpt lon="100.969870" lat="12.953715">
                <ele>47.722534</ele>
                <time>2012-03-25T03:37:14Z</time>
            </trkpt>
            <trkpt lon="100.969607" lat="12.953643">
                <ele>50.125977</ele>
                <time>2012-03-25T03:37:31Z</time>
            </trkpt>
            <trkpt lon="100.969655" lat="12.953939">
                <ele>51.087158</ele>
                <time>2012-03-25T03:37:41Z</time>
            </trkpt>
            <trkpt lon="100.969587" lat="12.954132">
                <ele>51.567871</ele>
                <time>2012-03-25T03:37:48Z</time>
            </trkpt>
            <trkpt lon="100.968876" lat="12.955106">
                <ele>48.203369</ele>
                <time>2012-03-25T03:38:35Z</time>
            </trkpt>
            <trkpt lon="100.968929" lat="12.955351">
                <ele>50.606567</ele>
                <time>2012-03-25T03:38:49Z</time>
            </trkpt>
            <trkpt lon="100.969960" lat="12.956797">
                <ele>59.258423</ele>
                <time>2012-03-25T03:40:38Z</time>
            </trkpt>
            <trkpt lon="100.970560" lat="12.956525">
                <ele>61.661743</ele>
                <time>2012-03-25T03:41:02Z</time>
            </trkpt>
            <trkpt lon="100.970730" lat="12.956422">
                <ele>61.661743</ele>
                <time>2012-03-25T03:41:08Z</time>
            </trkpt>
            <trkpt lon="100.971508" lat="12.958124">
                <ele>69.832886</ele>
                <time>2012-03-25T03:42:16Z</time>
            </trkpt>
            <trkpt lon="100.971704" lat="12.959148">
                <ele>72.236206</ele>
                <time>2012-03-25T03:42:49Z</time>
            </trkpt>
            <trkpt lon="100.971181" lat="12.959427">
                <ele>68.390869</ele>
                <time>2012-03-25T03:43:11Z</time>
            </trkpt>
            <trkpt lon="100.971504" lat="12.960423">
                <ele>67.910278</ele>
                <time>2012-03-25T03:43:41Z</time>
            </trkpt>
            <trkpt lon="100.972633" lat="12.960181">
                <ele>76.081421</ele>
                <time>2012-03-25T03:44:36Z</time>
            </trkpt>
            <trkpt lon="100.974313" lat="12.959924">
                <ele>79.446045</ele>
                <time>2012-03-25T03:45:37Z</time>
            </trkpt>
            <trkpt lon="100.973572" lat="12.961073">
                <ele>73.678223</ele>
                <time>2012-03-25T03:46:24Z</time>
            </trkpt>
            <trkpt lon="100.973283" lat="12.963539">
                <ele>64.545654</ele>
                <time>2012-03-25T03:47:52Z</time>
            </trkpt>
            <trkpt lon="100.973558" lat="12.964265">
                <ele>61.661743</ele>
                <time>2012-03-25T03:48:20Z</time>
            </trkpt>
            <trkpt lon="100.974383" lat="12.965056">
                <ele>61.181030</ele>
                <time>2012-03-25T03:48:50Z</time>
            </trkpt>
            <trkpt lon="100.974264" lat="12.965894">
                <ele>59.739136</ele>
                <time>2012-03-25T03:49:15Z</time>
            </trkpt>
            <trkpt lon="100.974206" lat="12.966761">
                <ele>55.893799</ele>
                <time>2012-03-25T03:49:36Z</time>
            </trkpt>
            <trkpt lon="100.974357" lat="12.968191">
                <ele>54.451782</ele>
                <time>2012-03-25T03:50:12Z</time>
            </trkpt>
            <trkpt lon="100.973578" lat="12.968342">
                <ele>54.932373</ele>
                <time>2012-03-25T03:50:36Z</time>
            </trkpt>
            <trkpt lon="100.973000" lat="12.968683">
                <ele>54.451782</ele>
                <time>2012-03-25T03:50:51Z</time>
            </trkpt>
            <trkpt lon="100.971600" lat="12.968691">
                <ele>54.451782</ele>
                <time>2012-03-25T03:51:19Z</time>
            </trkpt>
            <trkpt lon="100.971342" lat="12.968664">
                <ele>53.490479</ele>
                <time>2012-03-25T03:51:24Z</time>
            </trkpt>
            <trkpt lon="100.970915" lat="12.968948">
                <ele>53.009766</ele>
                <time>2012-03-25T03:51:37Z</time>
            </trkpt>
            <trkpt lon="100.970809" lat="12.970099">
                <ele>49.164551</ele>
                <time>2012-03-25T03:51:57Z</time>
            </trkpt>
            <trkpt lon="100.970495" lat="12.971466">
                <ele>40.993408</ele>
                <time>2012-03-25T03:52:20Z</time>
            </trkpt>
            <trkpt lon="100.969397" lat="12.971604">
                <ele>38.109375</ele>
                <time>2012-03-25T03:52:54Z</time>
            </trkpt>
            <trkpt lon="100.967392" lat="12.972148">
                <ele>35.706055</ele>
                <time>2012-03-25T03:54:01Z</time>
            </trkpt>
            <trkpt lon="100.966820" lat="12.972423">
                <ele>35.706055</ele>
                <time>2012-03-25T03:54:38Z</time>
            </trkpt>
            <trkpt lon="100.966746" lat="12.972418">
                <ele>35.225464</ele>
                <time>2012-03-25T03:54:53Z</time>
            </trkpt>
            <trkpt lon="100.966656" lat="12.972537">
                <ele>37.148071</ele>
                <time>2012-03-25T03:57:29Z</time>
            </trkpt>
            <trkpt lon="100.967018" lat="12.973053">
                <ele>38.590088</ele>
                <time>2012-03-25T03:58:39Z</time>
            </trkpt>
            <trkpt lon="100.967053" lat="12.973496">
                <ele>39.070679</ele>
                <time>2012-03-25T03:59:00Z</time>
            </trkpt>
            <trkpt lon="100.966823" lat="12.973917">
                <ele>44.358032</ele>
                <time>2012-03-25T04:01:25Z</time>
            </trkpt>
            <trkpt lon="100.964585" lat="12.975371">
                <ele>36.186768</ele>
                <time>2012-03-25T04:03:41Z</time>
            </trkpt>
            <trkpt lon="100.962666" lat="12.974427">
                <ele>34.264160</ele>
                <time>2012-03-25T04:04:20Z</time>
            </trkpt>
            <trkpt lon="100.961356" lat="12.974210">
                <ele>29.457520</ele>
                <time>2012-03-25T04:04:41Z</time>
            </trkpt>
            <trkpt lon="100.959717" lat="12.974656">
                <ele>29.938110</ele>
                <time>2012-03-25T04:05:11Z</time>
            </trkpt>
            <trkpt lon="100.957566" lat="12.974101">
                <ele>28.976929</ele>
                <time>2012-03-25T04:05:54Z</time>
            </trkpt>
            <trkpt lon="100.957572" lat="12.974991">
                <ele>29.938110</ele>
                <time>2012-03-25T04:06:17Z</time>
            </trkpt>
            <trkpt lon="100.957361" lat="12.975177">
                <ele>29.457520</ele>
                <time>2012-03-25T04:06:24Z</time>
            </trkpt>
            <trkpt lon="100.957035" lat="12.975113">
                <ele>30.418823</ele>
                <time>2012-03-25T04:06:32Z</time>
            </trkpt>
            <trkpt lon="100.956776" lat="12.974853">
                <ele>30.899536</ele>
                <time>2012-03-25T04:06:40Z</time>
            </trkpt>
            <trkpt lon="100.956549" lat="12.974740">
                <ele>30.418823</ele>
                <time>2012-03-25T04:06:45Z</time>
            </trkpt>
            <trkpt lon="100.956120" lat="12.974666">
                <ele>30.899536</ele>
                <time>2012-03-25T04:06:53Z</time>
            </trkpt>
            <trkpt lon="100.955138" lat="12.974825">
                <ele>28.496216</ele>
                <time>2012-03-25T04:07:11Z</time>
            </trkpt>
            <trkpt lon="100.953156" lat="12.974787">
                <ele>32.822266</ele>
                <time>2012-03-25T04:14:08Z</time>
            </trkpt>
            <trkpt lon="100.951099" lat="12.974534">
                <ele>28.015503</ele>
                <time>2012-03-25T04:15:35Z</time>
            </trkpt>
            <trkpt lon="100.951873" lat="12.974105">
                <ele>26.092896</ele>
                <time>2012-03-25T04:15:55Z</time>
            </trkpt>
            <trkpt lon="100.954026" lat="12.973458">
                <ele>25.612305</ele>
                <time>2012-03-25T04:16:39Z</time>
            </trkpt>
            <trkpt lon="100.955446" lat="12.973377">
                <ele>26.573608</ele>
                <time>2012-03-25T04:17:16Z</time>
            </trkpt>
            <trkpt lon="100.957022" lat="12.971545">
                <ele>28.015503</ele>
                <time>2012-03-25T04:18:11Z</time>
            </trkpt>
            <trkpt lon="100.957041" lat="12.971268">
                <ele>27.534912</ele>
                <time>2012-03-25T04:18:18Z</time>
            </trkpt>
            <trkpt lon="100.956830" lat="12.970852">
                <ele>27.534912</ele>
                <time>2012-03-25T04:18:28Z</time>
            </trkpt>
            <trkpt lon="100.956509" lat="12.970692">
                <ele>26.573608</ele>
                <time>2012-03-25T04:18:36Z</time>
            </trkpt>
            <trkpt lon="100.956017" lat="12.970692">
                <ele>26.092896</ele>
                <time>2012-03-25T04:18:47Z</time>
            </trkpt>
            <trkpt lon="100.956135" lat="12.970259">
                <ele>27.534912</ele>
                <time>2012-03-25T04:18:59Z</time>
            </trkpt>
            <trkpt lon="100.956627" lat="12.969543">
                <ele>27.054321</ele>
                <time>2012-03-25T04:19:18Z</time>
            </trkpt>
            <trkpt lon="100.956490" lat="12.969187">
                <ele>28.015503</ele>
                <time>2012-03-25T04:19:29Z</time>
            </trkpt>
            <trkpt lon="100.956104" lat="12.968682">
                <ele>27.534912</ele>
                <time>2012-03-25T04:19:44Z</time>
            </trkpt>
            <trkpt lon="100.955578" lat="12.968130">
                <ele>26.092896</ele>
                <time>2012-03-25T04:20:01Z</time>
            </trkpt>
            <trkpt lon="100.954980" lat="12.967656">
                <ele>21.286377</ele>
                <time>2012-03-25T04:20:16Z</time>
            </trkpt>
            <trkpt lon="100.954342" lat="12.967477">
                <ele>19.844360</ele>
                <time>2012-03-25T04:20:28Z</time>
            </trkpt>
            <trkpt lon="100.954033" lat="12.967209">
                <ele>21.766968</ele>
                <time>2012-03-25T04:20:39Z</time>
            </trkpt>
            <trkpt lon="100.954007" lat="12.966984">
                <ele>21.766968</ele>
                <time>2012-03-25T04:20:45Z</time>
            </trkpt>
            <trkpt lon="100.954325" lat="12.967035">
                <ele>22.247559</ele>
                <time>2012-03-25T04:20:52Z</time>
            </trkpt>
            <trkpt lon="100.954462" lat="12.966349">
                <ele>25.131714</ele>
                <time>2012-03-25T04:21:07Z</time>
            </trkpt>
            <trkpt lon="100.955068" lat="12.966406">
                <ele>26.573608</ele>
                <time>2012-03-25T04:21:24Z</time>
            </trkpt>
            <trkpt lon="100.954089" lat="12.965067">
                <ele>25.612305</ele>
                <time>2012-03-25T04:21:37Z</time>
            </trkpt>
            <trkpt lon="100.953948" lat="12.964544">
                <ele>26.092896</ele>
                <time>2012-03-25T04:21:51Z</time>
            </trkpt>
            <trkpt lon="100.954193" lat="12.963852">
                <ele>27.054321</ele>
                <time>2012-03-25T04:22:08Z</time>
            </trkpt>
            <trkpt lon="100.954134" lat="12.963109">
                <ele>29.457520</ele>
                <time>2012-03-25T04:22:33Z</time>
            </trkpt>
            <trkpt lon="100.953975" lat="12.962606">
                <ele>29.457520</ele>
                <time>2012-03-25T04:22:48Z</time>
            </trkpt>
            <trkpt lon="100.954077" lat="12.962325">
                <ele>29.938110</ele>
                <time>2012-03-25T04:22:58Z</time>
            </trkpt>
            <trkpt lon="100.955543" lat="12.961148">
                <ele>35.706055</ele>
                <time>2012-03-25T04:23:57Z</time>
            </trkpt>
            <trkpt lon="100.956485" lat="12.960142">
                <ele>39.070679</ele>
                <time>2012-03-25T04:24:42Z</time>
            </trkpt>
            <trkpt lon="100.957128" lat="12.959736">
                <ele>43.396606</ele>
                <time>2012-03-25T04:25:13Z</time>
            </trkpt>
            <trkpt lon="100.957013" lat="12.958907">
                <ele>44.838623</ele>
                <time>2012-03-25T04:25:47Z</time>
            </trkpt>
            <trkpt lon="100.954268" lat="12.957916">
                <ele>34.264160</ele>
                <time>2012-03-25T04:27:12Z</time>
            </trkpt>
            <trkpt lon="100.954599" lat="12.956729">
                <ele>35.706055</ele>
                <time>2012-03-25T04:27:50Z</time>
            </trkpt>
            <trkpt lon="100.954166" lat="12.956514">
                <ele>34.744873</ele>
                <time>2012-03-25T04:28:06Z</time>
            </trkpt>
            <trkpt lon="100.955432" lat="12.952420">
                <ele>42.916016</ele>
                <time>2012-03-25T04:29:55Z</time>
            </trkpt>
            <trkpt lon="100.953748" lat="12.952765">
                <ele>45.799927</ele>
                <time>2012-03-25T04:30:39Z</time>
            </trkpt>
            <trkpt lon="100.953431" lat="12.952683">
                <ele>45.319214</ele>
                <time>2012-03-25T04:30:47Z</time>
            </trkpt>
            <trkpt lon="100.952485" lat="12.951943">
                <ele>46.280640</ele>
                <time>2012-03-25T04:31:15Z</time>
            </trkpt>
            <trkpt lon="100.951452" lat="12.951723">
                <ele>47.241821</ele>
                <time>2012-03-25T04:31:44Z</time>
            </trkpt>
            <trkpt lon="100.950968" lat="12.950911">
                <ele>46.280640</ele>
                <time>2012-03-25T04:32:04Z</time>
            </trkpt>
            <trkpt lon="100.951116" lat="12.950734">
                <ele>45.799927</ele>
                <time>2012-03-25T04:32:11Z</time>
            </trkpt>
            <trkpt lon="100.953397" lat="12.950779">
                <ele>45.319214</ele>
                <time>2012-03-25T04:32:58Z</time>
            </trkpt>
            <trkpt lon="100.956191" lat="12.950478">
                <ele>49.164551</ele>
                <time>2012-03-25T04:34:08Z</time>
            </trkpt>
            <trkpt lon="100.956783" lat="12.948947">
                <ele>53.009766</ele>
                <time>2012-03-25T04:35:02Z</time>
            </trkpt>
            <trkpt lon="100.958688" lat="12.946457">
                <ele>58.297119</ele>
                <time>2012-03-25T04:36:24Z</time>
            </trkpt>
            <trkpt lon="100.958321" lat="12.945682">
                <ele>57.335815</ele>
                <time>2012-03-25T04:36:45Z</time>
            </trkpt>
            <trkpt lon="100.958453" lat="12.944823">
                <ele>57.335815</ele>
                <time>2012-03-25T04:37:04Z</time>
            </trkpt>
            <trkpt lon="100.958529" lat="12.944674">
                <ele>57.335815</ele>
                <time>2012-03-25T04:37:11Z</time>
            </trkpt>
            <trkpt lon="100.958727" lat="12.944687">
                <ele>58.777710</ele>
                <time>2012-03-25T04:37:19Z</time>
            </trkpt>
            <trkpt lon="100.958852" lat="12.943990">
                <ele>59.739136</ele>
                <time>2012-03-25T04:37:38Z</time>
            </trkpt>
            <trkpt lon="100.958400" lat="12.943807">
                <ele>60.700317</ele>
                <time>2012-03-25T04:37:57Z</time>
            </trkpt>
            <trkpt lon="100.957406" lat="12.943691">
                <ele>56.855103</ele>
                <time>2012-03-25T04:38:16Z</time>
            </trkpt>
            <trkpt lon="100.957254" lat="12.943499">
                <ele>56.374512</ele>
                <time>2012-03-25T04:38:21Z</time>
            </trkpt>
            <trkpt lon="100.956810" lat="12.940101">
                <ele>45.799927</ele>
                <time>2012-03-25T04:39:27Z</time>
            </trkpt>
            <trkpt lon="100.956265" lat="12.940267">
                <ele>44.838623</ele>
                <time>2012-03-25T04:39:46Z</time>
            </trkpt>
            <trkpt lon="100.955875" lat="12.940081">
                <ele>44.358032</ele>
                <time>2012-03-25T04:40:01Z</time>
            </trkpt>
            <trkpt lon="100.955766" lat="12.939364">
                <ele>43.396606</ele>
                <time>2012-03-25T04:40:17Z</time>
            </trkpt>
            <trkpt lon="100.955680" lat="12.938355">
                <ele>39.551269</ele>
                <time>2012-03-25T04:40:38Z</time>
            </trkpt>
            <trkpt lon="100.955475" lat="12.938211">
                <ele>39.070679</ele>
                <time>2012-03-25T04:40:47Z</time>
            </trkpt>
            <trkpt lon="100.954654" lat="12.938363">
                <ele>39.551269</ele>
                <time>2012-03-25T04:41:03Z</time>
            </trkpt>
            <trkpt lon="100.953367" lat="12.938515">
                <ele>36.667481</ele>
                <time>2012-03-25T04:41:27Z</time>
            </trkpt>
            <trkpt lon="100.953227" lat="12.938331">
                <ele>36.667481</ele>
                <time>2012-03-25T04:41:35Z</time>
            </trkpt>
            <trkpt lon="100.953790" lat="12.935211">
                <ele>36.186768</ele>
                <time>2012-03-25T04:42:39Z</time>
            </trkpt>
            <trkpt lon="100.953675" lat="12.934051">
                <ele>33.783447</ele>
                <time>2012-03-25T04:42:59Z</time>
            </trkpt>
            <trkpt lon="100.953383" lat="12.933420">
                <ele>33.302856</ele>
                <time>2012-03-25T04:43:12Z</time>
            </trkpt>
            <trkpt lon="100.952626" lat="12.932529">
                <ele>32.341553</ele>
                <time>2012-03-25T04:43:33Z</time>
            </trkpt>
            <trkpt lon="100.952259" lat="12.931790">
                <ele>32.822266</ele>
                <time>2012-03-25T04:43:48Z</time>
            </trkpt>
            <trkpt lon="100.952217" lat="12.931220">
                <ele>36.186768</ele>
                <time>2012-03-25T04:44:00Z</time>
            </trkpt>
            <trkpt lon="100.952250" lat="12.930331">
                <ele>35.706055</ele>
                <time>2012-03-25T04:44:19Z</time>
            </trkpt>
            <trkpt lon="100.952081" lat="12.929674">
                <ele>34.744873</ele>
                <time>2012-03-25T04:44:34Z</time>
            </trkpt>
            <trkpt lon="100.952858" lat="12.929769">
                <ele>44.838623</ele>
                <time>2012-03-25T04:44:37Z</time>
            </trkpt>
            <trkpt lon="100.952287" lat="12.929647">
                <ele>57.816528</ele>
                <time>2012-03-25T04:44:40Z</time>
            </trkpt>
            <trkpt lon="100.952749" lat="12.929543">
                <ele>60.219727</ele>
                <time>2012-03-25T04:44:51Z</time>
            </trkpt>
            <trkpt lon="100.953212" lat="12.929376">
                <ele>53.009766</ele>
                <time>2012-03-25T04:45:02Z</time>
            </trkpt>
            <trkpt lon="100.953969" lat="12.928837">
                <ele>43.877319</ele>
                <time>2012-03-25T04:45:28Z</time>
            </trkpt>
            <trkpt lon="100.955910" lat="12.928574">
                <ele>56.855103</ele>
                <time>2012-03-25T04:46:26Z</time>
            </trkpt>
            <trkpt lon="100.956247" lat="12.928521">
                <ele>57.335815</ele>
                <time>2012-03-25T04:46:38Z</time>
            </trkpt>
            <trkpt lon="100.955994" lat="12.924250">
                <ele>51.567871</ele>
                <time>2012-03-25T04:48:48Z</time>
            </trkpt>
            <trkpt lon="100.956141" lat="12.923392">
                <ele>58.297119</ele>
                <time>2012-03-25T04:49:19Z</time>
            </trkpt>
            <trkpt lon="100.956115" lat="12.922379">
                <ele>59.739136</ele>
                <time>2012-03-25T04:49:56Z</time>
            </trkpt>
            <trkpt lon="100.956342" lat="12.922123">
                <ele>61.181030</ele>
                <time>2012-03-25T04:50:08Z</time>
            </trkpt>
            <trkpt lon="100.956258" lat="12.920637">
                <ele>63.103638</ele>
                <time>2012-03-25T04:51:00Z</time>
            </trkpt>
            <trkpt lon="100.956366" lat="12.920386">
                <ele>59.739136</ele>
                <time>2012-03-25T04:51:11Z</time>
            </trkpt>
            <trkpt lon="100.956076" lat="12.918262">
                <ele>61.661743</ele>
                <time>2012-03-25T04:52:34Z</time>
            </trkpt>
            <trkpt lon="100.956697" lat="12.918177">
                <ele>64.065063</ele>
                <time>2012-03-25T04:52:54Z</time>
            </trkpt>
            <trkpt lon="100.957543" lat="12.917873">
                <ele>63.103638</ele>
                <time>2012-03-25T04:53:13Z</time>
            </trkpt>
            <trkpt lon="100.957760" lat="12.917680">
                <ele>63.103638</ele>
                <time>2012-03-25T04:53:19Z</time>
            </trkpt>
            <trkpt lon="100.958097" lat="12.917438">
                <ele>62.142334</ele>
                <time>2012-03-25T04:53:27Z</time>
            </trkpt>
            <trkpt lon="100.959724" lat="12.917071">
                <ele>61.661743</ele>
                <time>2012-03-25T04:54:01Z</time>
            </trkpt>
            <trkpt lon="100.960272" lat="12.916794">
                <ele>60.219727</ele>
                <time>2012-03-25T04:54:14Z</time>
            </trkpt>
            <trkpt lon="100.960082" lat="12.916303">
                <ele>61.181030</ele>
                <time>2012-03-25T04:54:30Z</time>
            </trkpt>
            <trkpt lon="100.958828" lat="12.913903">
                <ele>54.932373</ele>
                <time>2012-03-25T04:55:33Z</time>
            </trkpt>
            <trkpt lon="100.959179" lat="12.913749">
                <ele>54.451782</ele>
                <time>2012-03-25T04:55:43Z</time>
            </trkpt>
            <trkpt lon="100.959212" lat="12.913561">
                <ele>52.529175</ele>
                <time>2012-03-25T04:55:51Z</time>
            </trkpt>
            <trkpt lon="100.959088" lat="12.911693">
                <ele>49.164551</ele>
                <time>2012-03-25T04:56:47Z</time>
            </trkpt>
            <trkpt lon="100.958266" lat="12.910606">
                <ele>49.645264</ele>
                <time>2012-03-25T04:57:30Z</time>
            </trkpt>
            <trkpt lon="100.956684" lat="12.910049">
                <ele>47.722534</ele>
                <time>2012-03-25T04:58:18Z</time>
            </trkpt>
            <trkpt lon="100.957004" lat="12.909676">
                <ele>44.838623</ele>
                <time>2012-03-25T04:58:32Z</time>
            </trkpt>
            <trkpt lon="100.957930" lat="12.909609">
                <ele>46.280640</ele>
                <time>2012-03-25T04:58:55Z</time>
            </trkpt>
            <trkpt lon="100.958117" lat="12.909219">
                <ele>46.761231</ele>
                <time>2012-03-25T04:59:10Z</time>
            </trkpt>
            <trkpt lon="100.958174" lat="12.907994">
                <ele>43.396606</ele>
                <time>2012-03-25T04:59:43Z</time>
            </trkpt>
            <trkpt lon="100.958332" lat="12.907967">
                <ele>42.916016</ele>
                <time>2012-03-25T04:59:50Z</time>
            </trkpt>
            <trkpt lon="100.959368" lat="12.907965">
                <ele>42.435425</ele>
                <time>2012-03-25T05:00:21Z</time>
            </trkpt>
            <trkpt lon="100.960360" lat="12.908382">
                <ele>41.954712</ele>
                <time>2012-03-25T05:00:51Z</time>
            </trkpt>
            <trkpt lon="100.961980" lat="12.908729">
                <ele>44.838623</ele>
                <time>2012-03-25T05:01:57Z</time>
            </trkpt>
            <trkpt lon="100.962970" lat="12.909509">
                <ele>47.241821</ele>
                <time>2012-03-25T05:02:44Z</time>
            </trkpt>
            <trkpt lon="100.965009" lat="12.905951">
                <ele>57.816528</ele>
                <time>2012-03-25T05:05:20Z</time>
            </trkpt>
            <trkpt lon="100.965128" lat="12.905178">
                <ele>68.390869</ele>
                <time>2012-03-25T05:06:36Z</time>
            </trkpt>
            <trkpt lon="100.965249" lat="12.905021">
                <ele>68.390869</ele>
                <time>2012-03-25T05:07:01Z</time>
            </trkpt>
            <trkpt lon="100.966500" lat="12.905261">
                <ele>65.026367</ele>
                <time>2012-03-25T05:07:46Z</time>
            </trkpt>
            <trkpt lon="100.967846" lat="12.905209">
                <ele>63.103638</ele>
                <time>2012-03-25T05:08:22Z</time>
            </trkpt>
            <trkpt lon="100.968509" lat="12.905216">
                <ele>60.219727</ele>
                <time>2012-03-25T05:08:40Z</time>
            </trkpt>
            <trkpt lon="100.969508" lat="12.904887">
                <ele>66.948975</ele>
                <time>2012-03-25T05:09:08Z</time>
            </trkpt>
            <trkpt lon="100.969775" lat="12.905884">
                <ele>66.468262</ele>
                <time>2012-03-25T05:09:35Z</time>
            </trkpt>
            <trkpt lon="100.969551" lat="12.906295">
                <ele>67.429688</ele>
                <time>2012-03-25T05:09:44Z</time>
            </trkpt>
            <trkpt lon="100.969649" lat="12.906523">
                <ele>67.429688</ele>
                <time>2012-03-25T05:09:51Z</time>
            </trkpt>
            <trkpt lon="100.972006" lat="12.906298">
                <ele>68.390869</ele>
                <time>2012-03-25T05:10:46Z</time>
            </trkpt>
            <trkpt lon="100.972617" lat="12.906017">
                <ele>65.507080</ele>
                <time>2012-03-25T05:11:02Z</time>
            </trkpt>
            <trkpt lon="100.973479" lat="12.906049">
                <ele>68.390869</ele>
                <time>2012-03-25T05:11:26Z</time>
            </trkpt>
            <trkpt lon="100.973583" lat="12.906361">
                <ele>68.871582</ele>
                <time>2012-03-25T05:11:39Z</time>
            </trkpt>
            <trkpt lon="100.974254" lat="12.906360">
                <ele>71.755493</ele>
                <time>2012-03-25T05:12:00Z</time>
            </trkpt>
            <trkpt lon="100.975058" lat="12.905607">
                <ele>74.158813</ele>
                <time>2012-03-25T05:12:35Z</time>
            </trkpt>
            <trkpt lon="100.975055" lat="12.905612">
                <ele>73.678223</ele>
                <time>2012-03-25T05:12:36Z</time>
            </trkpt>
        </trkseg>
    </trk>
</gpx>